Bethel Airport
PABE : rendu visible

Aérodrome :











RETROUVEZ-NOUS SUR...

 
LOGIN :

S'inscrire | Disclaimer

   EN    FR    IT 

 









Légende :    VFR   VFR Marginal   IFR   IFR Intensif   IFR Très Intensif
Visi : 
Plafond : 
>= 8 km
>= 3000ft
5 à 8 km
1000 à 3000 ft
1500m à 5 km
500 à 1000 ft
800 à 1500m
200 à 500 ft
< 800m
< 200 ft
Symboles :   Orages  Brouillard  Fortes neiges  Fortes précipitations  Vent > 20 kt






- Altitude de l'aérodrome : 126 ft
- Code IATA : BET


PABE - Bethel

DERNIER METAR :
  • 270853Z 03012KT 10SM CLR M21/M24 A2972 RMK AO2 SLP069 T12061244 411501211 51007

METARs EXPIRÉS :
  • 270753Z 03010KT 10SM CLR M20/M24 A2971 RMK AO2 SLP066 T12001239
  • 270653Z 03010KT 10SM CLR M19/M23 A2971 RMK AO2 SLP065 T11941233

TAF PABE
Valide du 27 à 06h jusqu'au 28 à 06h UTC


270522Z 2706/2806 03016KT P6SM SKC



MET'MAP, la Météo Aéronautique d'un coup d'oeil ! - Copyright ORBIFLY Décembre 2007 - Disclaimer

ORBIFLY MET'MAP TEAM :

Programmation & Développement : Alexandra Zaïnal
Sur une idée originale de : Baudouin d'Aumeries
Assistance à la programmation : Marc-Olivier Méhu
Soutien technique & logistique : Manuel Goepfert

Contact : metmap@orbifly.com




SOURCES & CREDITS :

   NOAA       Earth
Advisory